sensor_id;sensor_type;location;lat;lon;timestamp;pressure;altitude;pressure_sealevel;temperature;humidity
13314;BME280;6725;48.112;11.604;2023-02-13T00:01:16;95531.91;;;1.84;100.00
13314;BME280;6725;48.112;11.604;2023-02-13T00:03:42;95525.56;;;1.92;100.00
13314;BME280;6725;48.112;11.604;2023-02-13T00:06:07;95525.56;;;1.92;100.00
13314;BME280;6725;48.112;11.604;2023-02-13T00:08:33;95522.19;;;1.95;100.00
13314;BME280;6725;48.112;11.604;2023-02-13T00:10:59;95539.50;;;1.82;100.00
13314;BME280;6725;48.112;11.604;2023-02-13T00:13:24;95533.44;;;1.85;100.00
13314;BME280;6725;48.112;11.604;2023-02-13T00:15:57;95530.34;;;1.83;100.00
13314;BME280;6725;48.112;11.604;2023-02-13T00:18:25;95525.63;;;1.80;100.00
13314;BME280;6725;48.112;11.604;2023-02-13T00:21:08;95510.38;;;1.84;100.00
13314;BME280;6725;48.112;11.604;2023-02-13T00:23:34;95508.09;;;1.86;100.00
13314;BME280;6725;48.112;11.604;2023-02-13T00:26:05;95503.41;;;1.83;100.00
13314;BME280;6725;48.112;11.604;2023-02-13T00:28:30;95497.31;;;1.86;100.00
13314;BME280;6725;48.112;11.604;2023-02-13T00:31:07;95491.72;;;1.91;100.00
13314;BME280;6725;48.112;11.604;2023-02-13T00:33:33;95491.03;;;1.94;100.00
13314;BME280;6725;48.112;11.604;2023-02-13T00:36:16;95494.47;;;1.95;100.00
13314;BME280;6725;48.112;11.604;2023-02-13T00:38:42;95492.06;;;1.90;100.00
13314;BME280;6725;48.112;11.604;2023-02-13T00:41:09;95489.44;;;1.93;100.00
13314;BME280;6725;48.112;11.604;2023-02-13T00:43:34;95486.75;;;1.93;100.00
13314;BME280;6725;48.112;11.604;2023-02-13T00:46:00;95476.16;;;2.00;100.00
13314;BME280;6725;48.112;11.604;2023-02-13T00:48:27;95483.09;;;2.01;100.00
13314;BME280;6725;48.112;11.604;2023-02-13T00:50:53;95483.81;;;1.98;100.00
13314;BME280;6725;48.112;11.604;2023-02-13T00:53:20;95478.25;;;1.91;100.00
13314;BME280;6725;48.112;11.604;2023-02-13T00:55:46;95479.81;;;1.92;100.00
13314;BME280;6725;48.112;11.604;2023-02-13T00:58:12;95480.16;;;1.91;100.00
13314;BME280;6725;48.112;11.604;2023-02-13T01:00:37;95482.84;;;1.91;100.00
13314;BME280;6725;48.112;11.604;2023-02-13T01:03:03;95484.50;;;1.95;100.00
13314;BME280;6725;48.112;11.604;2023-02-13T01:05:28;95477.72;;;2.01;100.00
13314;BME280;6725;48.112;11.604;2023-02-13T01:07:54;95471.63;;;2.04;100.00
13314;BME280;6725;48.112;11.604;2023-02-13T01:10:20;95478.16;;;2.03;100.00
13314;BME280;6725;48.112;11.604;2023-02-13T01:12:45;95482.84;;;2.06;100.00
13314;BME280;6725;48.112;11.604;2023-02-13T01:15:11;95466.19;;;2.01;100.00
13314;BME280;6725;48.112;11.604;2023-02-13T01:17:36;95476.09;;;1.97;100.00
13314;BME280;6725;48.112;11.604;2023-02-13T01:20:05;95459.94;;;1.97;100.00
13314;BME280;6725;48.112;11.604;2023-02-13T01:22:31;95459.75;;;2.05;100.00
13314;BME280;6725;48.112;11.604;2023-02-13T01:24:56;95447.16;;;2.09;100.00
13314;BME280;6725;48.112;11.604;2023-02-13T01:27:22;95450.97;;;2.08;100.00
13314;BME280;6725;48.112;11.604;2023-02-13T01:29:47;95455.31;;;1.97;100.00
13314;BME280;6725;48.112;11.604;2023-02-13T01:32:13;95462.09;;;1.91;100.00
13314;BME280;6725;48.112;11.604;2023-02-13T01:34:38;95456.88;;;1.98;100.00
13314;BME280;6725;48.112;11.604;2023-02-13T01:37:04;95446.66;;;2.04;100.00
13314;BME280;6725;48.112;11.604;2023-02-13T01:39:32;95448.28;;;2.08;100.00
13314;BME280;6725;48.112;11.604;2023-02-13T01:41:58;95449.25;;;2.16;100.00
13314;BME280;6725;48.112;11.604;2023-02-13T01:44:44;95461.56;;;2.17;100.00
13314;BME280;6725;48.112;11.604;2023-02-13T01:47:11;95478.06;;;2.15;100.00
13314;BME280;6725;48.112;11.604;2023-02-13T01:49:39;95477.13;;;2.08;100.00
13314;BME280;6725;48.112;11.604;2023-02-13T01:52:07;95475.66;;;2.10;100.00
13314;BME280;6725;48.112;11.604;2023-02-13T01:54:33;95475.47;;;2.03;100.00
13314;BME280;6725;48.112;11.604;2023-02-13T01:57:04;95475.47;;;2.03;100.00
13314;BME280;6725;48.112;11.604;2023-02-13T02:00:02;95464.09;;;2.10;100.00
13314;BME280;6725;48.112;11.604;2023-02-13T02:02:33;95468.00;;;2.12;100.00
13314;BME280;6725;48.112;11.604;2023-02-13T02:05:02;95486.75;;;2.09;100.00
13314;BME280;6725;48.112;11.604;2023-02-13T02:07:31;95482.78;;;2.18;100.00
13314;BME280;6725;48.112;11.604;2023-02-13T02:10:27;95490.44;;;2.16;100.00
13314;BME280;6725;48.112;11.604;2023-02-13T02:13:11;95482.25;;;2.28;100.00
13314;BME280;6725;48.112;11.604;2023-02-13T02:15:37;95484.69;;;2.33;100.00
13314;BME280;6725;48.112;11.604;2023-02-13T02:18:08;95493.72;;;2.25;100.00
13314;BME280;6725;48.112;11.604;2023-02-13T02:45:43;95526.69;;;1.91;100.00
13314;BME280;6725;48.112;11.604;2023-02-13T02:52:14;95524.09;;;1.95;100.00
13314;BME280;6725;48.112;11.604;2023-02-13T02:54:22;95533.19;;;1.90;100.00
13314;BME280;6725;48.112;11.604;2023-02-13T02:57:19;95527.81;;;1.90;100.00
13314;BME280;6725;48.112;11.604;2023-02-13T02:59:47;95525.91;;;1.91;100.00
13314;BME280;6725;48.112;11.604;2023-02-13T03:02:32;95532.16;;;1.95;100.00
13314;BME280;6725;48.112;11.604;2023-02-13T03:05:20;95526.78;;;1.95;100.00
13314;BME280;6725;48.112;11.604;2023-02-13T03:08:05;95527.56;;;1.95;100.00
13314;BME280;6725;48.112;11.604;2023-02-13T03:10:34;95539.50;;;1.82;100.00
13314;BME280;6725;48.112;11.604;2023-02-13T03:13:54;95545.94;;;1.78;100.00
13314;BME280;6725;48.112;11.604;2023-02-13T03:16:23;95545.50;;;1.76;100.00
13314;BME280;6725;48.112;11.604;2023-02-13T03:19:12;95548.53;;;1.74;100.00
13314;BME280;6725;48.112;11.604;2023-02-13T03:22:33;95544.75;;;1.63;100.00
13314;BME280;6725;48.112;11.604;2023-02-13T03:47:03;95577.22;;;1.43;100.00
13314;BME280;6725;48.112;11.604;2023-02-13T03:49:37;95577.56;;;1.41;100.00
13314;BME280;6725;48.112;11.604;2023-02-13T03:52:30;95582.75;;;1.34;100.00
13314;BME280;6725;48.112;11.604;2023-02-13T03:55:00;95583.31;;;1.28;100.00
13314;BME280;6725;48.112;11.604;2023-02-13T03:57:48;95593.97;;;1.24;100.00
13314;BME280;6725;48.112;11.604;2023-02-13T04:00:39;95595.31;;;1.18;100.00
13314;BME280;6725;48.112;11.604;2023-02-13T04:03:44;95594.66;;;1.21;100.00
13314;BME280;6725;48.112;11.604;2023-02-13T04:06:17;95589.50;;;1.28;100.00
13314;BME280;6725;48.112;11.604;2023-02-13T04:08:43;95596.66;;;1.36;100.00
13314;BME280;6725;48.112;11.604;2023-02-13T04:11:14;95592.94;;;1.29;100.00
13314;BME280;6725;48.112;11.604;2023-02-13T04:14:10;95600.00;;;1.33;100.00
13314;BME280;6725;48.112;11.604;2023-02-13T04:16:43;95597.06;;;1.38;100.00
13314;BME280;6725;48.112;11.604;2023-02-13T04:19:10;95601.47;;;1.31;100.00
13314;BME280;6725;48.112;11.604;2023-02-13T04:21:38;95603.81;;;1.20;100.00
13314;BME280;6725;48.112;11.604;2023-02-13T04:24:07;95601.13;;;1.32;100.00
13314;BME280;6725;48.112;11.604;2023-02-13T04:26:39;95598.88;;;1.34;100.00
13314;BME280;6725;48.112;11.604;2023-02-13T04:29:06;95597.88;;;1.39;100.00
13314;BME280;6725;48.112;11.604;2023-02-13T04:31:31;95594.28;;;1.35;100.00
13314;BME280;6725;48.112;11.604;2023-02-13T04:33:57;95595.97;;;1.39;100.00
13314;BME280;6725;48.112;11.604;2023-02-13T04:36:22;95595.72;;;1.44;100.00
13314;BME280;6725;48.112;11.604;2023-02-13T04:38:48;95597.75;;;1.47;100.00
13314;BME280;6725;48.112;11.604;2023-02-13T04:41:14;95603.66;;;1.41;100.00
13314;BME280;6725;48.112;11.604;2023-02-13T04:43:40;95604.47;;;1.41;100.00
13314;BME280;6725;48.112;11.604;2023-02-13T04:46:05;95605.03;;;1.35;100.00
13314;BME280;6725;48.112;11.604;2023-02-13T04:48:31;95599.75;;;1.38;100.00
13314;BME280;6725;48.112;11.604;2023-02-13T04:50:56;95608.06;;;1.33;100.00
13314;BME280;6725;48.112;11.604;2023-02-13T04:53:21;95601.47;;;1.31;100.00
13314;BME280;6725;48.112;11.604;2023-02-13T04:55:47;95600.66;;;1.42;100.00
13314;BME280;6725;48.112;11.604;2023-02-13T04:58:12;95610.63;;;1.42;100.00
13314;BME280;6725;48.112;11.604;2023-02-13T05:00:38;95601.69;;;1.38;100.00
13314;BME280;6725;48.112;11.604;2023-02-13T05:03:07;95615.25;;;1.29;100.00
13314;BME280;6725;48.112;11.604;2023-02-13T05:05:33;95603.56;;;1.37;100.00
13314;BME280;6725;48.112;11.604;2023-02-13T05:07:59;95608.28;;;1.40;100.00
13314;BME280;6725;48.112;11.604;2023-02-13T05:10:25;95613.13;;;1.23;100.00
13314;BME280;6725;48.112;11.604;2023-02-13T05:12:50;95619.28;;;1.23;100.00
13314;BME280;6725;48.112;11.604;2023-02-13T05:15:16;95621.63;;;1.25;100.00
13314;BME280;6725;48.112;11.604;2023-02-13T05:17:45;95632.19;;;1.18;100.00
13314;BME280;6725;48.112;11.604;2023-02-13T05:20:12;95641.03;;;1.18;100.00
13314;BME280;6725;48.112;11.604;2023-02-13T05:22:52;95637.56;;;1.18;100.00
13314;BME280;6725;48.112;11.604;2023-02-13T05:25:37;95636.56;;;1.22;100.00
13314;BME280;6725;48.112;11.604;2023-02-13T05:28:04;95637.69;;;1.21;100.00
13314;BME280;6725;48.112;11.604;2023-02-13T05:30:29;95637.19;;;1.31;100.00
13314;BME280;6725;48.112;11.604;2023-02-13T05:32:55;95641.69;;;1.39;100.00
13314;BME280;6725;48.112;11.604;2023-02-13T05:35:21;95641.22;;;1.37;100.00
13314;BME280;6725;48.112;11.604;2023-02-13T05:37:47;95652.56;;;1.31;100.00
13314;BME280;6725;48.112;11.604;2023-02-13T05:40:13;95652.09;;;1.41;100.00
13314;BME280;6725;48.112;11.604;2023-02-13T05:42:39;95644.03;;;1.53;100.00
13314;BME280;6725;48.112;11.604;2023-02-13T05:45:05;95647.72;;;1.48;100.00
13314;BME280;6725;48.112;11.604;2023-02-13T05:47:31;95659.81;;;1.42;100.00
13314;BME280;6725;48.112;11.604;2023-02-13T05:49:56;95667.78;;;1.39;100.00
13314;BME280;6725;48.112;11.604;2023-02-13T05:52:22;95665.13;;;1.27;100.00
13314;BME280;6725;48.112;11.604;2023-02-13T05:54:48;95681.81;;;1.20;100.00
13314;BME280;6725;48.112;11.604;2023-02-13T05:57:13;95686.06;;;1.21;100.00
13314;BME280;6725;48.112;11.604;2023-02-13T05:59:38;95695.03;;;1.13;100.00
13314;BME280;6725;48.112;11.604;2023-02-13T06:02:04;95701.41;;;1.21;100.00
13314;BME280;6725;48.112;11.604;2023-02-13T06:04:29;95695.72;;;1.22;100.00
13314;BME280;6725;48.112;11.604;2023-02-13T06:06:55;95707.91;;;1.32;100.00
13314;BME280;6725;48.112;11.604;2023-02-13T06:09:20;95694.94;;;1.34;100.00
13314;BME280;6725;48.112;11.604;2023-02-13T06:11:46;95702.75;;;1.39;100.00
13314;BME280;6725;48.112;11.604;2023-02-13T06:14:11;95702.31;;;1.37;100.00
13314;BME280;6725;48.112;11.604;2023-02-13T06:16:38;95706.69;;;1.41;100.00
13314;BME280;6725;48.112;11.604;2023-02-13T06:19:03;95720.38;;;1.36;100.00
13314;BME280;6725;48.112;11.604;2023-02-13T06:21:28;95715.88;;;1.40;100.00
13314;BME280;6725;48.112;11.604;2023-02-13T06:23:54;95729.75;;;1.42;100.00
13314;BME280;6725;48.112;11.604;2023-02-13T06:26:19;95731.69;;;1.42;100.00
13314;BME280;6725;48.112;11.604;2023-02-13T06:28:44;95734.94;;;1.47;100.00
13314;BME280;6725;48.112;11.604;2023-02-13T06:31:10;95727.75;;;1.51;100.00
13314;BME280;6725;48.112;11.604;2023-02-13T06:33:35;95733.34;;;1.58;100.00
13314;BME280;6725;48.112;11.604;2023-02-13T06:36:01;95726.59;;;1.64;100.00
13314;BME280;6725;48.112;11.604;2023-02-13T06:38:26;95737.16;;;1.69;100.00
13314;BME280;6725;48.112;11.604;2023-02-13T06:40:51;95734.56;;;1.73;100.00
13314;BME280;6725;48.112;11.604;2023-02-13T06:43:17;95743.88;;;1.75;100.00
13314;BME280;6725;48.112;11.604;2023-02-13T06:45:43;95744.31;;;1.77;100.00
13314;BME280;6725;48.112;11.604;2023-02-13T06:48:12;95746.34;;;1.80;100.00
13314;BME280;6725;48.112;11.604;2023-02-13T06:50:37;95757.78;;;1.77;100.00
13314;BME280;6725;48.112;11.604;2023-02-13T06:53:03;95755.19;;;1.81;100.00
13314;BME280;6725;48.112;11.604;2023-02-13T06:55:28;95764.72;;;1.78;100.00
13314;BME280;6725;48.112;11.604;2023-02-13T06:57:54;95755.31;;;1.84;100.00
13314;BME280;6725;48.112;11.604;2023-02-13T07:00:19;95767.88;;;1.80;100.00
13314;BME280;6725;48.112;11.604;2023-02-13T07:02:46;95773.69;;;1.82;100.00
13314;BME280;6725;48.112;11.604;2023-02-13T07:05:12;95787.94;;;1.83;100.00
13314;BME280;6725;48.112;11.604;2023-02-13T07:07:39;95799.28;;;1.88;100.00
13314;BME280;6725;48.112;11.604;2023-02-13T07:10:10;95801.38;;;1.95;100.00
13314;BME280;6725;48.112;11.604;2023-02-13T07:12:36;95804.41;;;1.93;100.00
13314;BME280;6725;48.112;11.604;2023-02-13T07:15:03;95810.13;;;1.92;100.00
13314;BME280;6725;48.112;11.604;2023-02-13T07:17:30;95819.47;;;1.94;100.00
13314;BME280;6725;48.112;11.604;2023-02-13T07:19:56;95830.78;;;2.00;100.00
13314;BME280;6725;48.112;11.604;2023-02-13T07:22:22;95836.06;;;1.96;100.00
13314;BME280;6725;48.112;11.604;2023-02-13T07:24:47;95847.50;;;1.93;100.00
13314;BME280;6725;48.112;11.604;2023-02-13T07:27:13;95865.78;;;1.88;100.00
13314;BME280;6725;48.112;11.604;2023-02-13T07:29:38;95875.53;;;1.80;100.00
13314;BME280;6725;48.112;11.604;2023-02-13T07:32:03;95894.16;;;1.73;100.00
13314;BME280;6725;48.112;11.604;2023-02-13T07:34:31;95903.94;;;1.78;100.00
13314;BME280;6725;48.112;11.604;2023-02-13T07:36:56;95918.84;;;1.87;100.00
13314;BME280;6725;48.112;11.604;2023-02-13T07:39:22;95934.31;;;1.90;100.00
13314;BME280;6725;48.112;11.604;2023-02-13T07:41:47;95950.47;;;1.90;100.00
13314;BME280;6725;48.112;11.604;2023-02-13T07:44:13;95967.31;;;1.87;100.00
13314;BME280;6725;48.112;11.604;2023-02-13T07:46:38;95992.38;;;1.79;100.00
13314;BME280;6725;48.112;11.604;2023-02-13T07:49:04;96016.50;;;1.76;100.00
13314;BME280;6725;48.112;11.604;2023-02-13T07:51:29;96039.25;;;1.66;100.00
13314;BME280;6725;48.112;11.604;2023-02-13T07:53:57;96065.97;;;1.51;100.00
13314;BME280;6725;48.112;11.604;2023-02-13T07:56:23;96085.66;;;1.63;100.00
13314;BME280;6725;48.112;11.604;2023-02-13T07:58:48;96094.56;;;1.76;100.00
13314;BME280;6725;48.112;11.604;2023-02-13T08:01:15;96119.31;;;1.69;100.00
13314;BME280;6725;48.112;11.604;2023-02-13T08:03:41;96132.78;;;1.69;100.00
13314;BME280;6725;48.112;11.604;2023-02-13T08:06:07;96150.22;;;1.84;100.00
13314;BME280;6725;48.112;11.604;2023-02-13T08:08:33;96153.78;;;1.96;100.00
13314;BME280;6725;48.112;11.604;2023-02-13T08:11:05;96158.63;;;2.03;100.00
13314;BME280;6725;48.112;11.604;2023-02-13T08:13:49;96181.88;;;2.07;100.00
13314;BME280;6725;48.112;11.604;2023-02-13T08:16:15;96177.66;;;2.18;100.00
13314;BME280;6725;48.112;11.604;2023-02-13T08:18:40;96187.13;;;2.24;100.00
13314;BME280;6725;48.112;11.604;2023-02-13T08:21:06;96203.28;;;2.24;100.00
13314;BME280;6725;48.112;11.604;2023-02-13T08:23:31;96213.41;;;2.27;100.00
13314;BME280;6725;48.112;11.604;2023-02-13T08:26:00;96230.88;;;2.21;100.00
13314;BME280;6725;48.112;11.604;2023-02-13T08:28:26;96243.56;;;2.21;100.00
13314;BME280;6725;48.112;11.604;2023-02-13T08:30:52;96267.75;;;2.09;100.00
13314;BME280;6725;48.112;11.604;2023-02-13T08:33:17;96272.41;;;2.00;100.00
13314;BME280;6725;48.112;11.604;2023-02-13T08:35:43;96277.91;;;2.03;100.00
13314;BME280;6725;48.112;11.604;2023-02-13T08:38:08;96279.00;;;2.11;100.00
13314;BME280;6725;48.112;11.604;2023-02-13T08:40:34;96294.06;;;2.03;100.00
13314;BME280;6725;48.112;11.604;2023-02-13T08:43:03;96295.63;;;2.04;100.00
13314;BME280;6725;48.112;11.604;2023-02-13T08:45:29;96311.44;;;2.14;100.00
13314;BME280;6725;48.112;11.604;2023-02-13T08:47:56;96326.94;;;2.17;100.00
13314;BME280;6725;48.112;11.604;2023-02-13T08:50:22;96324.19;;;2.26;100.00
13314;BME280;6725;48.112;11.604;2023-02-13T08:52:47;96328.53;;;2.39;100.00
13314;BME280;6725;48.112;11.604;2023-02-13T08:55:12;96347.13;;;2.32;100.00
13314;BME280;6725;48.112;11.604;2023-02-13T08:57:38;96355.53;;;2.30;100.00
13314;BME280;6725;48.112;11.604;2023-02-13T09:00:04;96378.44;;;2.16;100.00
13314;BME280;6725;48.112;11.604;2023-02-13T09:02:30;96388.41;;;2.15;100.00
13314;BME280;6725;48.112;11.604;2023-02-13T09:04:55;96395.28;;;2.33;100.00
13314;BME280;6725;48.112;11.604;2023-02-13T09:07:20;96403.47;;;2.45;100.00
13314;BME280;6725;48.112;11.604;2023-02-13T09:09:46;96408.41;;;2.43;100.00
13314;BME280;6725;48.112;11.604;2023-02-13T09:12:11;96426.63;;;2.46;100.00
13314;BME280;6725;48.112;11.604;2023-02-13T09:14:37;96442.31;;;2.44;100.00
13314;BME280;6725;48.112;11.604;2023-02-13T09:17:03;96450.56;;;2.48;100.00
13314;BME280;6725;48.112;11.604;2023-02-13T09:19:29;96462.66;;;2.62;100.00
13314;BME280;6725;48.112;11.604;2023-02-13T09:21:54;96467.03;;;2.75;100.00
13314;BME280;6725;48.112;11.604;2023-02-13T09:24:19;96492.56;;;2.78;100.00
13314;BME280;6725;48.112;11.604;2023-02-13T09:26:45;96528.41;;;2.49;100.00
13314;BME280;6725;48.112;11.604;2023-02-13T09:29:10;96542.63;;;2.50;100.00
13314;BME280;6725;48.112;11.604;2023-02-13T09:31:35;96541.31;;;2.64;100.00
13314;BME280;6725;48.112;11.604;2023-02-13T09:34:01;96540.44;;;2.81;100.00
13314;BME280;6725;48.112;11.604;2023-02-13T09:36:26;96559.50;;;2.76;100.00
13314;BME280;6725;48.112;11.604;2023-02-13T09:38:53;96576.19;;;2.69;100.00
13314;BME280;6725;48.112;11.604;2023-02-13T09:41:28;96590.31;;;2.66;100.00
13314;BME280;6725;48.112;11.604;2023-02-13T09:44:05;96587.38;;;2.80;100.00
13314;BME280;6725;48.112;11.604;2023-02-13T09:46:36;96610.28;;;2.65;100.00
13314;BME280;6725;48.112;11.604;2023-02-13T09:49:10;96607.59;;;2.65;100.00
13314;BME280;6725;48.112;11.604;2023-02-13T09:51:37;96618.09;;;2.58;100.00
13314;BME280;6725;48.112;11.604;2023-02-13T09:54:07;96621.09;;;2.57;100.00
13314;BME280;6725;48.112;11.604;2023-02-13T09:59:28;96622.25;;;2.93;100.00
13314;BME280;6725;48.112;11.604;2023-02-13T10:02:01;96626.81;;;3.01;100.00
13314;BME280;6725;48.112;11.604;2023-02-13T10:04:55;96640.41;;;3.13;100.00
13314;BME280;6725;48.112;11.604;2023-02-13T10:07:37;96666.16;;;3.02;100.00
13314;BME280;6725;48.112;11.604;2023-02-13T10:10:56;96683.16;;;3.03;100.00
13314;BME280;6725;48.112;11.604;2023-02-13T10:13:42;96698.47;;;3.19;100.00
13314;BME280;6725;48.112;11.604;2023-02-13T10:18:48;96728.88;;;3.37;100.00
13314;BME280;6725;48.112;11.604;2023-02-13T10:21:19;96754.91;;;3.41;100.00
13314;BME280;6725;48.112;11.604;2023-02-13T10:23:57;96786.19;;;3.42;100.00
13314;BME280;6725;48.112;11.604;2023-02-13T10:26:26;96789.75;;;3.64;100.00
13314;BME280;6725;48.112;11.604;2023-02-13T10:29:13;96814.06;;;3.64;100.00
13314;BME280;6725;48.112;11.604;2023-02-13T10:32:02;96829.47;;;3.54;100.00
13314;BME280;6725;48.112;11.604;2023-02-13T10:34:35;96835.81;;;3.58;100.00
13314;BME280;6725;48.112;11.604;2023-02-13T10:37:08;96846.63;;;3.58;100.00
13314;BME280;6725;48.112;11.604;2023-02-13T10:39:40;96861.69;;;3.68;100.00
13314;BME280;6725;48.112;11.604;2023-02-13T10:45:09;96884.78;;;3.48;100.00
13314;BME280;6725;48.112;11.604;2023-02-13T10:50:36;96884.31;;;3.46;100.00
13314;BME280;6725;48.112;11.604;2023-02-13T10:53:22;96883.34;;;3.51;100.00
13314;BME280;6725;48.112;11.604;2023-02-13T10:59:04;96876.22;;;3.29;100.00
13314;BME280;6725;48.112;11.604;2023-02-13T11:01:38;96865.41;;;3.46;100.00
13314;BME280;6725;48.112;11.604;2023-02-13T11:04:10;96869.88;;;3.42;100.00
13314;BME280;6725;48.112;11.604;2023-02-13T11:06:38;96866.34;;;3.50;100.00
13314;BME280;6725;48.112;11.604;2023-02-13T11:09:07;96866.94;;;3.65;100.00
13314;BME280;6725;48.112;11.604;2023-02-13T11:11:35;96856.09;;;3.82;100.00
13314;BME280;6725;48.112;11.604;2023-02-13T11:14:12;96856.81;;;3.99;100.00
13314;BME280;6725;48.112;11.604;2023-02-13T11:16:42;96876.34;;;4.05;100.00
13314;BME280;6725;48.112;11.604;2023-02-13T11:19:16;96880.88;;;4.21;100.00
13314;BME280;6725;48.112;11.604;2023-02-13T11:21:42;96894.34;;;4.30;100.00
13314;BME280;6725;48.112;11.604;2023-02-13T11:24:25;96907.16;;;4.41;100.00
13314;BME280;6725;48.112;11.604;2023-02-13T11:26:56;96933.69;;;4.19;100.00
13314;BME280;6725;48.112;11.604;2023-02-13T11:29:28;96941.91;;;4.22;100.00
13314;BME280;6725;48.112;11.604;2023-02-13T11:34:31;96951.66;;;4.15;100.00
13314;BME280;6725;48.112;11.604;2023-02-13T11:37:28;96948.88;;;3.86;100.00
13314;BME280;6725;48.112;11.604;2023-02-13T11:39:56;96938.81;;;4.03;100.00
13314;BME280;6725;48.112;11.604;2023-02-13T11:45:04;96939.31;;;3.97;100.00
13314;BME280;6725;48.112;11.604;2023-02-13T11:47:41;96945.38;;;3.94;100.00
13314;BME280;6725;48.112;11.604;2023-02-13T11:50:33;96939.44;;;4.00;100.00
13314;BME280;6725;48.112;11.604;2023-02-13T11:53:06;96936.44;;;4.02;100.00
13314;BME280;6725;48.112;11.604;2023-02-13T11:55:38;96938.59;;;4.17;100.00
13314;BME280;6725;48.112;11.604;2023-02-13T12:00:37;96943.38;;;4.11;100.00
13314;BME280;6725;48.112;11.604;2023-02-13T12:03:24;96952.75;;;4.14;100.00
13314;BME280;6725;48.112;11.604;2023-02-13T12:06:11;96940.16;;;3.89;100.00
13314;BME280;6725;48.112;11.604;2023-02-13T12:08:38;96942.69;;;3.85;100.00
13314;BME280;6725;48.112;11.604;2023-02-13T12:13:50;96924.72;;;3.81;100.00
13314;BME280;6725;48.112;11.604;2023-02-13T12:16:34;96911.19;;;3.98;100.00
13314;BME280;6725;48.112;11.604;2023-02-13T12:19:05;96904.09;;;3.85;100.00
13314;BME280;6725;48.112;11.604;2023-02-13T12:21:46;96897.31;;;4.08;100.00
13314;BME280;6725;48.112;11.604;2023-02-13T12:38:10;96896.34;;;4.12;100.00
13314;BME280;6725;48.112;11.604;2023-02-13T12:43:41;96902.91;;;4.32;100.00
13314;BME280;6725;48.112;11.604;2023-02-13T12:48:54;96916.44;;;4.61;100.00
13314;BME280;6725;48.112;11.604;2023-02-13T13:08:15;96953.25;;;4.16;100.00
13314;BME280;6725;48.112;11.604;2023-02-13T13:13:40;96940.28;;;3.84;100.00
13314;BME280;6725;48.112;11.604;2023-02-13T13:16:36;96918.44;;;4.14;100.00
13314;BME280;6725;48.112;11.604;2023-02-13T13:21:50;96921.50;;;4.33;100.00
13314;BME280;6725;48.112;11.604;2023-02-13T13:27:26;96934.59;;;4.31;100.00
13314;BME280;6725;48.112;11.604;2023-02-13T13:32:38;96935.75;;;4.22;100.00
13314;BME280;6725;48.112;11.604;2023-02-13T13:35:12;96939.91;;;4.11;100.00
13314;BME280;6725;48.112;11.604;2023-02-13T13:37:52;96928.66;;;4.00;100.00
13314;BME280;6725;48.112;11.604;2023-02-13T13:40:45;96931.50;;;4.12;100.00
13314;BME280;6725;48.112;11.604;2023-02-13T13:48:42;96935.16;;;4.08;100.00
13314;BME280;6725;48.112;11.604;2023-02-13T13:51:15;96935.88;;;4.25;100.00
13314;BME280;6725;48.112;11.604;2023-02-13T13:59:18;96934.53;;;4.02;100.00
13314;BME280;6725;48.112;11.604;2023-02-13T14:01:44;96941.28;;;3.71;100.00
13314;BME280;6725;48.112;11.604;2023-02-13T14:11:50;96889.59;;;3.81;100.00
13314;BME280;6725;48.112;11.604;2023-02-13T14:16:59;96889.78;;;3.76;100.00
13314;BME280;6725;48.112;11.604;2023-02-13T14:19:33;96882.22;;;3.61;100.00
13314;BME280;6725;48.112;11.604;2023-02-13T14:24:57;96858.59;;;3.40;100.00
13314;BME280;6725;48.112;11.604;2023-02-13T14:27:33;96844.22;;;3.66;100.00
13314;BME280;6725;48.112;11.604;2023-02-13T14:30:02;96834.97;;;3.75;100.00
13314;BME280;6725;48.112;11.604;2023-02-13T14:35:01;96833.25;;;3.71;100.00
13314;BME280;6725;48.112;11.604;2023-02-13T14:37:31;96831.88;;;3.56;100.00
13314;BME280;6725;48.112;11.604;2023-02-13T14:42:41;96828.50;;;3.68;100.00
13314;BME280;6725;48.112;11.604;2023-02-13T14:45:16;96823.41;;;3.75;100.00
13314;BME280;6725;48.112;11.604;2023-02-13T14:47:50;96830.88;;;3.69;100.00
13314;BME280;6725;48.112;11.604;2023-02-13T14:50:53;96827.59;;;3.93;100.00
13314;BME280;6725;48.112;11.604;2023-02-13T14:53:30;96828.34;;;4.02;100.00
13314;BME280;6725;48.112;11.604;2023-02-13T14:56:05;96834.50;;;3.82;100.00
13314;BME280;6725;48.112;11.604;2023-02-13T14:58:34;96834.50;;;3.82;100.00
13314;BME280;6725;48.112;11.604;2023-02-13T15:01:06;96820.34;;;3.85;100.00
13314;BME280;6725;48.112;11.604;2023-02-13T15:03:40;96814.16;;;3.76;100.00
13314;BME280;6725;48.112;11.604;2023-02-13T15:06:18;96812.72;;;3.78;100.00
13314;BME280;6725;48.112;11.604;2023-02-13T15:08:49;96809.75;;;3.63;100.00
13314;BME280;6725;48.112;11.604;2023-02-13T15:11:42;96791.56;;;3.51;100.00
13314;BME280;6725;48.112;11.604;2023-02-13T15:16:56;96764.28;;;3.35;100.00
13314;BME280;6725;48.112;11.604;2023-02-13T15:19:24;96748.47;;;3.54;100.00
13314;BME280;6725;48.112;11.604;2023-02-13T15:22:00;96746.59;;;3.55;100.00
13314;BME280;6725;48.112;11.604;2023-02-13T15:24:35;96729.03;;;3.70;100.00
13314;BME280;6725;48.112;11.604;2023-02-13T15:27:05;96739.81;;;3.70;100.00
13314;BME280;6725;48.112;11.604;2023-02-13T15:29:31;96736.16;;;3.74;100.00
13314;BME280;6725;48.112;11.604;2023-02-13T15:31:56;96739.66;;;3.75;100.00
13314;BME280;6725;48.112;11.604;2023-02-13T15:34:26;96732.22;;;3.72;100.00
13314;BME280;6725;48.112;11.604;2023-02-13T15:36:53;96741.03;;;3.81;100.00
13314;BME280;6725;48.112;11.604;2023-02-13T15:39:23;96733.69;;;3.90;100.00
13314;BME280;6725;48.112;11.604;2023-02-13T15:41:51;96739.00;;;3.78;100.00
13314;BME280;6725;48.112;11.604;2023-02-13T15:44:25;96733.16;;;3.67;100.00
13314;BME280;6725;48.112;11.604;2023-02-13T15:46:52;96728.66;;;3.80;100.00
13314;BME280;6725;48.112;11.604;2023-02-13T15:49:21;96729.47;;;3.80;100.00
13314;BME280;6725;48.112;11.604;2023-02-13T15:51:48;96730.78;;;3.66;100.00
13314;BME280;6725;48.112;11.604;2023-02-13T15:54:31;96733.75;;;3.81;100.00